Terminal Aerodrome Forecast
Issued by NWS

Home | Current Version | Previous Version | Text Only | Print | Product List | Glossary On
Versions: 1 2 3 4 5 6 7 8 9 10 11 12 13 14 15 16 17 18 19 20 21 22 23 24
434
FTUS43 KLSX 251726
TAFUIN
TAF
KUIN 251726Z 2518/2618 15007KT P6SM VCTS SCT060CB
     FM252000 13008KT P6SM -SHRA VCTS BKN035CB
     FM260300 13006KT P6SM VCSH OVC015
     FM260900 21006KT 3SM BR VCSH OVC008
     FM261200 21006KT P6SM OVC008
     FM261600 25009KT P6SM OVC008=

USA.gov is the U.S. government's official web portal to all federal, state and local government web resources and services.